Time;durP1;ratioP1;P1;durP2;ratioP2;P2;SDS_P1;SDS_P2;PMS_P1;PMS_P2;Temp;Humidity;BMP_temperature;BMP_pressure;BME280_temperature;BME280_humidity;BME280_pressure;Samples;Min_cycle;Max_cycle;Signal;HPM_P1;HPM_P2
2023/02/22 00:00:41;;;;;;;80.47;32.42;;;9.90;99.90;;;;;;5039082;28;20032;-71
2023/02/22 00:03:14;;;;;;;71.60;31.75;;;9.90;99.90;;;;;;5040000;28;20022;-70
2023/02/22 00:05:46;;;;;;;73.80;31.58;;;9.90;99.90;;;;;;5039519;28;20088;-70
2023/02/22 00:08:16;;;;;;;71.75;31.08;;;9.90;99.90;;;;;;5039028;28;20398;-69
2023/02/22 00:10:43;;;;;;;72.18;30.63;;;9.90;99.90;;;;;;5038692;28;20053;-71
2023/02/22 00:13:12;;;;;;;77.57;33.28;;;9.90;99.90;;;;;;5038069;28;20725;-71
2023/02/22 00:15:40;;;;;;;78.68;31.02;;;9.90;99.90;;;;;;5040264;28;20056;-70
2023/02/22 00:18:09;;;;;;;72.10;30.35;;;9.90;99.90;;;;;;5038005;28;20053;-72
2023/02/22 00:20:37;;;;;;;73.95;30.38;;;9.90;99.90;;;;;;5039901;28;20022;-71
2023/02/22 00:23:06;;;;;;;76.88;32.67;;;9.80;99.90;;;;;;5039290;28;20056;-71
2023/02/22 00:25:32;;;;;;;79.00;32.10;;;9.80;99.90;;;;;;5038673;28;20329;-69
2023/02/22 00:27:59;;;;;;;74.65;30.67;;;9.80;99.90;;;;;;5043172;28;20025;-71
2023/02/22 00:30:28;;;;;;;81.72;31.90;;;9.80;99.90;;;;;;5042292;28;20048;-71
2023/02/22 00:32:55;;;;;;;76.85;32.35;;;9.80;99.90;;;;;;5043061;28;20041;-71
2023/02/22 00:35:27;;;;;;;77.03;31.15;;;9.80;99.90;;;;;;5043461;28;20030;-71
2023/02/22 00:37:56;;;;;;;79.97;32.45;;;9.80;99.90;;;;;;5043231;28;20105;-70
2023/02/22 00:40:27;;;;;;;80.32;32.75;;;9.80;99.90;;;;;;5043454;28;20028;-71
2023/02/22 00:42:53;;;;;;;83.47;32.65;;;9.80;99.90;;;;;;5043032;28;20029;-70
2023/02/22 00:45:21;;;;;;;85.18;34.35;;;9.80;99.90;;;;;;5042032;28;20049;-71
2023/02/22 00:47:47;;;;;;;84.68;32.42;;;9.70;99.90;;;;;;5042819;28;20022;-72
2023/02/22 00:50:15;;;;;;;82.40;32.25;;;9.70;99.90;;;;;;5041661;28;20048;-71
2023/02/22 00:52:41;;;;;;;82.15;32.47;;;9.70;99.90;;;;;;5043096;28;20034;-71
2023/02/22 00:55:14;;;;;;;89.90;34.22;;;9.70;99.90;;;;;;5042769;28;20022;-71
2023/02/22 00:57:40;;;;;;;84.07;32.22;;;9.70;99.90;;;;;;5043607;28;20024;-69
2023/02/22 01:00:11;;;;;;;84.43;33.00;;;9.70;99.90;;;;;;5042654;28;20093;-72
2023/02/22 01:02:41;;;;;;;82.07;32.33;;;9.70;99.90;;;;;;5044299;28;20038;-69
2023/02/22 01:05:13;;;;;;;91.22;34.22;;;9.70;99.90;;;;;;5043508;28;20084;-72
2023/02/22 01:07:39;;;;;;;84.00;32.40;;;9.70;99.90;;;;;;5043739;28;20026;-70
2023/02/22 01:10:07;;;;;;;92.00;33.88;;;9.70;99.90;;;;;;5042507;28;20048;-69
2023/02/22 01:12:34;;;;;;;82.85;32.22;;;9.70;99.90;;;;;;5059048;28;20021;-71
2023/02/22 01:15:00;;;;;;;87.88;33.55;;;9.70;99.90;;;;;;5041812;28;20053;-70
2023/02/22 01:17:26;;;;;;;91.45;34.72;;;9.70;99.90;;;;;;5043834;28;20029;-70
2023/02/22 01:19:53;;;;;;;83.03;32.95;;;9.70;99.90;;;;;;5041377;28;20087;-72
2023/02/22 01:22:20;;;;;;;89.38;33.42;;;9.70;99.90;;;;;;5043204;28;20029;-70
2023/02/22 01:24:49;;;;;;;97.40;35.03;;;9.70;99.90;;;;;;5043092;28;20613;-70
2023/02/22 01:27:16;;;;;;;92.57;32.50;;;9.60;99.90;;;;;;5042777;28;20466;-71
2023/02/22 01:29:42;;;;;;;88.22;34.30;;;9.70;99.90;;;;;;5043332;28;20034;-71
2023/02/22 01:32:07;;;;;;;87.80;33.17;;;9.60;99.90;;;;;;5043353;28;20037;-69
2023/02/22 01:34:33;;;;;;;92.45;33.25;;;9.60;99.90;;;;;;5042958;28;20033;-71
2023/02/22 01:37:00;;;;;;;90.65;35.30;;;9.60;99.90;;;;;;5041581;28;20021;-70
2023/02/22 01:39:26;;;;;;;90.03;34.63;;;9.70;99.90;;;;;;5042471;28;20093;-70
2023/02/22 01:41:52;;;;;;;91.90;34.30;;;9.60;99.90;;;;;;5043151;28;20068;-72
2023/02/22 01:44:26;;;;;;;92.10;34.13;;;9.60;99.90;;;;;;5043312;28;20036;-71
2023/02/22 01:46:53;;;;;;;98.35;35.60;;;9.60;99.90;;;;;;5043174;28;20034;-70
2023/02/22 01:49:20;;;;;;;87.32;32.05;;;9.60;99.90;;;;;;5042878;28;20018;-71
2023/02/22 01:51:51;;;;;;;93.15;33.22;;;9.60;99.90;;;;;;5041309;28;20737;-69
2023/02/22 01:54:34;;;;;;;99.05;34.10;;;9.60;99.90;;;;;;5042602;28;20017;-69
2023/02/22 01:57:02;;;;;;;99.65;34.85;;;9.50;99.90;;;;;;5042780;28;20029;-69
2023/02/22 01:59:31;;;;;;;100.43;34.53;;;9.50;99.90;;;;;;5041946;28;20248;-69
2023/02/22 02:01:58;;;;;;;100.20;33.95;;;9.50;99.90;;;;;;5057074;28;20109;-69
2023/02/22 02:04:24;;;;;;;97.75;34.72;;;9.50;99.90;;;;;;5042206;28;20013;-71
2023/02/22 02:06:53;;;;;;;103.38;34.65;;;9.50;99.90;;;;;;5040515;28;20022;-70
2023/02/22 02:09:38;;;;;;;97.05;33.65;;;9.50;99.90;;;;;;5042285;28;20076;-71
2023/02/22 02:12:06;;;;;;;95.18;33.33;;;9.50;99.90;;;;;;5042943;28;20032;-72
2023/02/22 02:14:32;;;;;;;106.72;34.20;;;9.50;99.90;;;;;;5042409;28;20372;-71
2023/02/22 02:17:01;;;;;;;110.18;36.20;;;9.40;99.90;;;;;;5042304;28;20036;-72
2023/02/22 02:19:42;;;;;;;94.28;33.15;;;9.40;99.90;;;;;;5042308;28;20076;-73
2023/02/22 02:22:27;;;;;;;106.00;34.67;;;9.40;99.90;;;;;;5042174;28;20017;-69
2023/02/22 02:25:10;;;;;;;107.97;35.60;;;9.40;99.90;;;;;;5040868;28;20072;-72
2023/02/22 02:27:57;;;;;;;103.60;34.50;;;9.40;99.90;;;;;;5042455;28;20033;-70
2023/02/22 02:30:47;;;;;;;98.45;32.95;;;9.40;99.90;;;;;;5041785;28;20033;-69
2023/02/22 02:33:49;;;;;;;101.53;34.00;;;9.40;99.90;;;;;;5040865;28;20021;-71
2023/02/22 02:36:28;;;;;;;99.90;34.05;;;9.40;99.90;;;;;;5043571;28;20040;-69
2023/02/22 02:39:00;;;;;;;96.07;32.80;;;9.40;99.90;;;;;;5040506;28;20045;-70
2023/02/22 02:41:32;;;;;;;94.57;32.97;;;9.30;99.90;;;;;;5040517;28;20026;-71
2023/02/22 02:44:14;;;;;;;97.28;32.92;;;9.30;99.90;;;;;;5041572;28;20479;-69
2023/02/22 02:47:00;;;;;;;96.50;33.33;;;9.30;99.90;;;;;;5041901;28;20036;-69
2023/02/22 02:49:47;;;;;;;97.97;33.58;;;9.30;99.90;;;;;;5039251;28;20025;-71
2023/02/22 02:52:15;;;;;;;95.10;32.47;;;9.30;99.90;;;;;;5040173;28;20085;-70
2023/02/22 02:54:42;;;;;;;100.82;33.10;;;9.30;99.90;;;;;;5042141;28;20114;-69
2023/02/22 02:57:08;;;;;;;96.80;32.33;;;9.30;99.90;;;;;;5042372;28;20018;-69
2023/02/22 02:59:38;;;;;;;99.40;33.83;;;9.30;99.90;;;;;;5042394;28;20031;-70
2023/02/22 03:02:16;;;;;;;88.30;31.10;;;9.30;99.90;;;;;;5041214;28;20064;-72
2023/02/22 03:04:53;;;;;;;92.30;31.42;;;9.30;99.90;;;;;;5042334;28;20025;-70
2023/02/22 03:07:37;;;;;;;85.97;30.60;;;9.30;99.90;;;;;;5041888;28;20025;-70
2023/02/22 03:10:20;;;;;;;87.68;30.52;;;9.30;99.90;;;;;;5042212;28;20100;-69
2023/02/22 03:13:05;;;;;;;86.38;30.55;;;9.30;99.90;;;;;;5042259;28;20041;-70
2023/02/22 03:16:01;;;;;;;83.63;29.50;;;9.30;99.90;;;;;;5040752;28;20064;-71
2023/02/22 03:18:34;;;;;;;83.65;30.42;;;9.30;99.90;;;;;;5041947;28;20029;-71
2023/02/22 03:21:35;;;;;;;93.17;31.27;;;9.30;99.90;;;;;;5040921;28;20036;-70
2023/02/22 03:24:18;;;;;;;81.70;28.50;;;9.30;99.90;;;;;;5033257;28;20276;-71
2023/02/22 03:26:51;;;;;;;83.93;28.67;;;9.30;99.90;;;;;;5038155;28;20136;-71
2023/02/22 03:29:20;;;;;;;83.45;30.58;;;9.30;99.90;;;;;;5041370;28;20071;-69
2023/02/22 03:31:52;;;;;;;84.00;28.73;;;9.20;99.90;;;;;;5041239;28;20038;-70
2023/02/22 03:34:26;;;;;;;83.05;29.98;;;9.20;99.90;;;;;;5041224;28;20028;-70
2023/02/22 03:37:01;;;;;;;78.30;28.83;;;9.10;99.90;;;;;;5040189;28;20060;-69
2023/02/22 03:39:29;;;;;;;82.05;30.10;;;9.10;99.90;;;;;;5041170;28;20041;-71
2023/02/22 03:42:02;;;;;;;78.22;28.17;;;9.10;99.90;;;;;;5041724;28;20056;-69
2023/02/22 03:44:31;;;;;;;82.50;29.10;;;9.10;99.90;;;;;;5041489;28;20025;-72
2023/02/22 03:47:01;;;;;;;81.90;28.00;;;9.00;99.90;;;;;;5041588;28;20140;-70
2023/02/22 03:49:36;;;;;;;85.45;30.98;;;9.00;99.90;;;;;;5039532;28;20072;-71
2023/02/22 03:52:03;;;;;;;82.32;29.90;;;9.00;99.90;;;;;;5041360;28;20029;-70
2023/02/22 03:54:30;;;;;;;82.20;30.48;;;9.00;99.90;;;;;;5041117;28;20104;-70
2023/02/22 03:57:01;;;;;;;85.20;30.58;;;9.00;99.90;;;;;;5041448;28;20083;-71
2023/02/22 03:59:28;;;;;;;85.50;29.45;;;9.00;99.90;;;;;;5039608;28;20057;-71
2023/02/22 04:01:54;;;;;;;82.20;28.55;;;9.00;99.90;;;;;;5042925;28;20029;-70
2023/02/22 04:04:20;;;;;;;89.05;30.48;;;9.00;99.90;;;;;;5045025;28;20025;-70
2023/02/22 04:06:46;;;;;;;75.45;27.98;;;9.00;99.90;;;;;;5044283;28;20109;-70
2023/02/22 04:09:12;;;;;;;76.35;28.10;;;8.90;99.90;;;;;;5044564;28;20036;-71
2023/02/22 04:11:38;;;;;;;85.65;28.95;;;8.90;99.90;;;;;;5044405;28;20060;-71
2023/02/22 04:14:04;;;;;;;84.10;29.52;;;8.90;99.90;;;;;;5045117;28;20483;-70
2023/02/22 04:16:29;;;;;;;81.13;30.20;;;8.90;99.90;;;;;;5044788;28;20029;-70
2023/02/22 04:18:55;;;;;;;89.32;31.63;;;8.90;99.90;;;;;;5044326;28;20052;-70
2023/02/22 04:21:21;;;;;;;84.63;29.10;;;8.90;99.90;;;;;;5044718;28;20040;-71
2023/02/22 04:23:46;;;;;;;81.63;28.90;;;8.80;99.90;;;;;;5043304;28;20461;-70
2023/02/22 04:26:12;;;;;;;84.88;30.58;;;8.80;99.90;;;;;;5044281;28;20506;-71
2023/02/22 04:28:37;;;;;;;84.50;30.15;;;8.90;99.90;;;;;;5044420;28;20094;-72
2023/02/22 04:31:03;;;;;;;84.85;30.00;;;8.90;99.90;;;;;;5044654;28;20120;-70
2023/02/22 04:33:32;;;;;;;80.78;30.25;;;8.90;99.90;;;;;;5043014;28;20096;-71
2023/02/22 04:35:58;;;;;;;84.25;30.30;;;8.90;99.90;;;;;;5042591;28;20025;-71
2023/02/22 04:38:25;;;;;;;78.68;28.75;;;8.90;99.90;;;;;;5044046;28;20022;-73
2023/02/22 04:40:51;;;;;;;86.78;30.98;;;8.90;99.90;;;;;;5044096;28;20025;-70
2023/02/22 04:43:17;;;;;;;81.75;29.90;;;8.90;99.90;;;;;;5043841;28;20033;-72
2023/02/22 04:45:43;;;;;;;79.65;30.05;;;8.90;99.90;;;;;;5043200;28;20021;-71
2023/02/22 04:48:09;;;;;;;80.15;31.75;;;8.90;99.90;;;;;;5043693;28;20026;-70
2023/02/22 04:50:35;;;;;;;85.47;32.03;;;8.90;99.90;;;;;;5041945;28;20045;-72
2023/02/22 04:53:01;;;;;;;80.25;31.95;;;8.90;99.90;;;;;;5044611;28;20098;-72
2023/02/22 04:55:27;;;;;;;83.03;32.08;;;8.90;99.90;;;;;;5044505;28;20029;-71
2023/02/22 04:57:53;;;;;;;87.60;31.50;;;8.80;99.90;;;;;;5044708;28;20028;-71
2023/02/22 05:00:20;;;;;;;86.18;31.70;;;8.80;99.90;;;;;;5041478;28;20107;-71
2023/02/22 05:02:46;;;;;;;89.03;33.15;;;8.80;99.90;;;;;;5044125;28;20033;-71
2023/02/22 05:05:14;;;;;;;93.50;33.38;;;8.80;99.90;;;;;;5043618;28;20048;-72
2023/02/22 05:07:40;;;;;;;93.70;34.40;;;8.70;99.90;;;;;;5043472;28;20021;-70
2023/02/22 05:10:05;;;;;;;93.72;33.90;;;8.70;99.90;;;;;;5043475;28;20603;-70
2023/02/22 05:12:31;;;;;;;96.18;32.40;;;8.60;99.90;;;;;;5041157;28;20083;-71
2023/02/22 05:14:56;;;;;;;93.55;33.38;;;8.60;99.90;;;;;;5043858;28;20024;-70
2023/02/22 05:17:22;;;;;;;91.10;33.33;;;8.60;99.90;;;;;;5043831;28;20032;-72
2023/02/22 05:19:48;;;;;;;94.72;32.83;;;8.50;99.90;;;;;;5042499;28;20116;-70
2023/02/22 05:22:13;;;;;;;88.88;31.33;;;8.50;99.90;;;;;;5042324;28;20028;-72
2023/02/22 05:24:39;;;;;;;93.32;32.60;;;8.40;99.90;;;;;;5043495;28;20042;-71
2023/02/22 05:27:04;;;;;;;95.85;33.30;;;8.40;99.90;;;;;;5043803;28;20030;-70
2023/02/22 05:29:30;;;;;;;92.15;33.85;;;8.40;99.90;;;;;;5043274;28;20457;-70
2023/02/22 05:31:57;;;;;;;98.22;34.53;;;8.40;99.90;;;;;;5040517;28;20040;-70
2023/02/22 05:34:22;;;;;;;93.43;34.03;;;8.40;99.90;;;;;;5042496;28;20021;-70
2023/02/22 05:36:48;;;;;;;111.45;36.80;;;8.30;99.90;;;;;;5043809;28;20478;-70
2023/02/22 05:39:14;;;;;;;89.45;32.92;;;8.30;99.90;;;;;;5043348;28;20025;-71
2023/02/22 05:41:39;;;;;;;93.93;33.55;;;8.20;99.90;;;;;;5043848;28;20026;-71
2023/02/22 05:44:05;;;;;;;101.53;36.13;;;8.20;99.90;;;;;;5044031;28;20026;-71
2023/02/22 05:46:30;;;;;;;104.00;35.80;;;8.10;99.90;;;;;;5043862;28;20049;-71
2023/02/22 05:48:56;;;;;;;97.80;33.25;;;8.10;99.90;;;;;;5041909;28;20032;-70
2023/02/22 05:51:22;;;;;;;92.97;33.28;;;8.10;99.90;;;;;;5043875;28;20091;-70
2023/02/22 05:53:50;;;;;;;94.55;33.20;;;8.10;99.90;;;;;;5038426;28;20029;-71
2023/02/22 05:56:21;;;;;;;97.22;32.60;;;8.10;99.90;;;;;;5043652;28;20733;-69
2023/02/22 05:58:46;;;;;;;99.97;32.60;;;8.10;99.90;;;;;;5041873;28;20071;-69
2023/02/22 06:01:12;;;;;;;93.90;32.58;;;8.10;99.90;;;;;;5040556;28;20116;-71
2023/02/22 06:03:37;;;;;;;92.50;31.50;;;8.10;99.90;;;;;;5039913;28;20030;-71
2023/02/22 06:06:04;;;;;;;104.88;33.17;;;8.10;99.90;;;;;;5041819;28;20029;-69
2023/02/22 06:08:29;;;;;;;99.65;33.45;;;8.10;99.90;;;;;;5042874;28;20467;-70
2023/02/22 06:10:55;;;;;;;92.63;32.17;;;8.10;99.90;;;;;;5040541;28;20113;-69
2023/02/22 06:13:20;;;;;;;94.97;31.25;;;8.00;99.90;;;;;;5042864;28;20037;-69
2023/02/22 06:15:46;;;;;;;87.63;31.33;;;8.00;99.90;;;;;;5043316;28;20033;-69
2023/02/22 06:18:12;;;;;;;97.75;32.47;;;8.00;99.90;;;;;;5041554;28;20030;-72
2023/02/22 06:20:37;;;;;;;94.78;30.30;;;8.00;99.90;;;;;;5042446;28;20026;-70
2023/02/22 06:23:03;;;;;;;91.72;31.67;;;8.00;99.90;;;;;;5042322;28;20021;-71
2023/02/22 06:25:30;;;;;;;93.35;31.75;;;7.90;99.90;;;;;;5042178;28;20057;-71
2023/02/22 06:27:55;;;;;;;89.00;30.67;;;7.80;99.90;;;;;;5039658;28;20413;-73
2023/02/22 06:30:23;;;;;;;95.05;32.08;;;7.80;99.90;;;;;;5042504;28;20037;-69
2023/02/22 06:32:48;;;;;;;93.53;31.88;;;7.70;99.90;;;;;;5042068;28;20034;-71
2023/02/22 06:35:15;;;;;;;88.63;31.50;;;7.70;99.90;;;;;;5040433;28;20089;-72
2023/02/22 06:37:41;;;;;;;96.90;31.65;;;7.60;99.90;;;;;;5040233;28;20097;-70
2023/02/22 06:40:07;;;;;;;108.57;33.95;;;7.60;99.90;;;;;;5040250;28;20036;-71
2023/02/22 06:42:33;;;;;;;104.05;32.50;;;7.60;99.90;;;;;;5039737;28;20028;-69
2023/02/22 06:44:58;;;;;;;112.35;32.90;;;7.60;99.90;;;;;;5037219;28;20116;-69
2023/02/22 06:47:24;;;;;;;94.18;33.35;;;7.50;99.90;;;;;;5040304;28;20022;-69
2023/02/22 06:49:56;;;;;;;114.45;32.90;;;7.50;99.90;;;;;;5040184;28;20029;-69
2023/02/22 06:52:23;;;;;;;113.10;33.10;;;7.50;99.90;;;;;;5040458;28;20081;-69
2023/02/22 06:54:49;;;;;;;100.22;32.25;;;7.50;99.90;;;;;;5037234;28;20065;-68
2023/02/22 06:57:15;;;;;;;111.60;32.67;;;7.60;99.90;;;;;;5039471;28;20040;-70
2023/02/22 06:59:40;;;;;;;98.85;32.50;;;7.60;99.90;;;;;;5041516;28;20029;-68
2023/02/22 07:02:06;;;;;;;103.82;33.15;;;7.60;99.90;;;;;;5041692;28;20028;-70
2023/02/22 07:04:32;;;;;;;98.65;32.10;;;7.70;99.90;;;;;;5039152;28;20047;-68
2023/02/22 07:06:57;;;;;;;98.40;33.47;;;7.70;99.90;;;;;;5036837;28;20072;-70
2023/02/22 07:09:23;;;;;;;108.60;31.98;;;7.70;99.90;;;;;;5040209;28;20025;-69
2023/02/22 07:11:48;;;;;;;102.88;32.17;;;7.70;99.90;;;;;;5042055;28;20063;-70
2023/02/22 07:14:16;;;;;;;93.88;30.90;;;7.70;99.90;;;;;;5039016;28;20021;-68
2023/02/22 07:16:41;;;;;;;96.38;32.95;;;7.70;99.90;;;;;;5040888;28;20029;-70
2023/02/22 07:19:07;;;;;;;86.53;30.38;;;7.80;99.90;;;;;;5038220;28;20036;-70
2023/02/22 07:21:32;;;;;;;98.45;33.10;;;7.80;99.90;;;;;;5039297;28;20026;-70
2023/02/22 07:23:58;;;;;;;82.03;29.63;;;7.90;99.90;;;;;;5038477;28;20039;-69
2023/02/22 07:26:25;;;;;;;89.72;29.70;;;7.90;99.90;;;;;;5040109;28;20048;-70
2023/02/22 07:28:51;;;;;;;86.78;29.10;;;8.00;99.90;;;;;;5039342;28;20029;-69
2023/02/22 07:31:17;;;;;;;90.47;29.45;;;8.10;99.90;;;;;;5040392;28;20044;-69
2023/02/22 07:33:44;;;;;;;79.85;28.27;;;8.10;99.90;;;;;;5040508;28;20676;-69
2023/02/22 07:36:12;;;;;;;81.40;28.55;;;8.10;99.90;;;;;;5040850;28;20021;-70
2023/02/22 07:38:38;;;;;;;84.03;29.73;;;8.10;99.90;;;;;;5040414;28;20096;-70
2023/02/22 07:41:04;;;;;;;85.47;29.70;;;8.20;99.90;;;;;;5040020;28;20180;-70
2023/02/22 07:43:30;;;;;;;89.78;30.05;;;8.20;99.90;;;;;;5038945;28;20029;-69
2023/02/22 07:45:57;;;;;;;89.88;30.27;;;8.20;99.90;;;;;;5040204;28;20043;-69
2023/02/22 07:48:25;;;;;;;83.40;29.23;;;8.20;99.90;;;;;;5040254;28;20036;-69
2023/02/22 07:50:50;;;;;;;80.07;27.60;;;8.30;99.90;;;;;;5039402;28;20038;-69
2023/02/22 07:53:16;;;;;;;81.93;28.50;;;8.30;99.90;;;;;;5039784;28;20063;-69
2023/02/22 07:55:42;;;;;;;80.70;29.67;;;8.30;99.90;;;;;;5039584;28;20017;-70
2023/02/22 07:58:08;;;;;;;78.75;28.05;;;8.40;99.90;;;;;;5041579;28;20053;-72
2023/02/22 08:00:38;;;;;;;75.53;27.73;;;8.40;99.90;;;;;;5040949;28;20026;-70
2023/02/22 08:03:06;;;;;;;83.18;28.48;;;8.40;99.90;;;;;;5037954;28;20467;-68
2023/02/22 08:05:33;;;;;;;76.88;28.17;;;8.50;99.90;;;;;;5041046;28;20507;-70
2023/02/22 08:07:59;;;;;;;73.40;28.35;;;8.60;99.90;;;;;;5040475;28;20049;-68
2023/02/22 08:10:25;;;;;;;72.60;26.98;;;8.70;99.90;;;;;;5039852;28;20037;-69
2023/02/22 08:12:53;;;;;;;84.03;29.25;;;8.70;99.90;;;;;;5040396;28;20025;-69
2023/02/22 08:15:23;;;;;;;73.10;27.13;;;8.70;99.90;;;;;;5040617;28;20025;-70
2023/02/22 08:17:48;;;;;;;65.15;24.27;;;8.80;99.90;;;;;;5038728;28;20022;-69
2023/02/22 08:20:14;;;;;;;67.95;26.67;;;8.80;99.90;;;;;;5041199;28;20028;-69
2023/02/22 08:22:43;;;;;;;67.97;25.98;;;8.90;99.90;;;;;;5039762;28;20076;-71
2023/02/22 08:25:09;;;;;;;63.55;23.73;;;8.90;99.90;;;;;;5040909;28;20053;-70
2023/02/22 08:27:34;;;;;;;63.53;24.73;;;9.00;99.90;;;;;;5041102;28;20020;-69
2023/02/22 08:30:00;;;;;;;69.90;25.58;;;9.10;99.90;;;;;;5039604;28;20040;-69
2023/02/22 08:32:25;;;;;;;64.85;24.20;;;9.20;99.90;;;;;;5039173;28;20029;-70
2023/02/22 08:34:51;;;;;;;58.63;23.35;;;9.20;99.90;;;;;;5040768;28;20071;-70
2023/02/22 08:37:17;;;;;;;62.38;23.52;;;9.30;99.90;;;;;;5032243;28;20032;-70
2023/02/22 08:39:43;;;;;;;57.95;24.77;;;9.40;99.90;;;;;;5034534;28;20041;-68
2023/02/22 08:42:10;;;;;;;53.25;21.08;;;9.50;99.90;;;;;;5038102;28;20030;-72
2023/02/22 08:44:37;;;;;;;60.63;22.33;;;9.60;99.90;;;;;;5040129;28;20025;-68
2023/02/22 08:47:03;;;;;;;54.50;22.00;;;9.70;99.90;;;;;;5055528;28;20116;-69
2023/02/22 08:49:28;;;;;;;55.88;22.67;;;9.80;99.90;;;;;;5041758;28;20108;-70
2023/02/22 08:51:54;;;;;;;53.83;21.60;;;9.90;99.90;;;;;;5044461;28;20050;-70
2023/02/22 08:54:21;;;;;;;48.28;18.67;;;10.00;99.90;;;;;;5042422;28;20029;-70
2023/02/22 08:56:47;;;;;;;47.65;20.17;;;10.10;99.90;;;;;;5040367;28;20029;-69
2023/02/22 08:59:13;;;;;;;48.42;18.00;;;10.20;99.90;;;;;;5041969;28;20060;-70
2023/02/22 09:01:39;;;;;;;46.55;17.70;;;10.20;99.90;;;;;;5039309;28;20064;-71
2023/02/22 09:04:04;;;;;;;43.22;17.52;;;10.30;99.90;;;;;;5042428;28;20037;-69
2023/02/22 09:06:30;;;;;;;44.42;17.58;;;10.30;99.90;;;;;;5041372;28;20033;-70
2023/02/22 09:08:55;;;;;;;43.53;17.50;;;10.40;99.90;;;;;;5040531;28;20491;-70
2023/02/22 09:11:21;;;;;;;47.33;17.33;;;10.50;99.90;;;;;;5042012;28;20038;-70
2023/02/22 09:13:46;;;;;;;48.65;18.13;;;10.50;99.90;;;;;;5041291;28;20555;-69
2023/02/22 09:16:12;;;;;;;52.22;18.23;;;10.50;99.90;;;;;;5043514;28;20040;-71
2023/02/22 09:18:38;;;;;;;43.35;17.20;;;10.50;99.90;;;;;;5036331;28;20085;-71
2023/02/22 09:21:04;;;;;;;46.67;18.05;;;10.50;99.90;;;;;;5041626;28;20108;-71
2023/02/22 09:23:30;;;;;;;46.10;18.95;;;10.40;99.90;;;;;;5039864;28;20549;-70
2023/02/22 09:25:58;;;;;;;44.80;18.02;;;10.30;99.90;;;;;;5042685;28;20669;-71
2023/02/22 09:28:25;;;;;;;47.90;18.98;;;10.30;99.90;;;;;;5042931;28;20036;-70
2023/02/22 09:30:50;;;;;;;41.95;17.38;;;10.30;99.90;;;;;;5042490;28;20034;-70
2023/02/22 09:33:18;;;;;;;46.47;18.90;;;10.30;99.90;;;;;;5043670;28;20021;-70
2023/02/22 09:35:45;;;;;;;45.38;18.42;;;10.30;99.90;;;;;;5041898;28;20038;-70
2023/02/22 09:38:11;;;;;;;50.03;18.20;;;10.40;99.90;;;;;;5044027;28;20116;-71
2023/02/22 09:40:45;;;;;;;49.00;18.50;;;10.40;99.90;;;;;;5041154;28;20044;-70
2023/02/22 09:43:24;;;;;;;42.65;18.05;;;10.40;99.90;;;;;;5042955;28;20035;-71
2023/02/22 09:46:10;;;;;;;46.20;17.65;;;10.50;99.90;;;;;;5041012;28;20112;-71
2023/02/22 09:48:46;;;;;;;46.25;16.73;;;10.60;99.90;;;;;;5044017;28;20112;-70
2023/02/22 09:51:16;;;;;;;42.00;17.27;;;10.70;99.90;;;;;;5043500;28;20034;-71
2023/02/22 09:53:44;;;;;;;44.95;16.58;;;10.70;99.90;;;;;;5040900;28;20378;-72
2023/02/22 09:56:13;;;;;;;42.88;17.17;;;10.80;99.90;;;;;;5040389;28;20471;-71
2023/02/22 09:58:45;;;;;;;40.67;17.58;;;10.80;99.90;;;;;;5040480;28;20363;-71
2023/02/22 10:01:22;;;;;;;38.83;15.40;;;10.90;99.90;;;;;;5041309;28;20017;-70
2023/02/22 10:03:50;;;;;;;42.90;18.92;;;11.10;99.90;;;;;;5040826;28;20049;-70
2023/02/22 10:06:20;;;;;;;38.30;17.58;;;11.30;99.90;;;;;;5039223;28;20049;-69
2023/02/22 10:08:45;;;;;;;49.47;18.92;;;11.50;99.90;;;;;;5039531;28;20033;-72
2023/02/22 10:11:30;;;;;;;41.83;17.05;;;11.70;99.90;;;;;;5041491;28;20079;-70
2023/02/22 10:14:14;;;;;;;49.17;18.88;;;12.00;99.90;;;;;;5039791;28;20494;-70
2023/02/22 10:16:41;;;;;;;42.40;18.27;;;12.30;99.90;;;;;;5042564;28;20029;-70
2023/02/22 10:19:13;;;;;;;42.85;17.40;;;12.50;99.90;;;;;;5041628;28;20026;-73
2023/02/22 10:22:07;;;;;;;42.53;17.02;;;12.70;99.90;;;;;;5041551;28;20030;-70
2023/02/22 10:24:50;;;;;;;40.50;17.87;;;12.60;99.90;;;;;;5040653;28;20088;-69
2023/02/22 10:27:20;;;;;;;40.45;18.38;;;12.60;99.90;;;;;;5041412;28;20037;-70
2023/02/22 10:30:10;;;;;;;45.53;18.02;;;12.60;99.90;;;;;;5037219;28;20057;-70
2023/02/22 10:32:44;;;;;;;41.95;17.27;;;12.70;99.90;;;;;;5030179;28;20417;-69
2023/02/22 10:35:31;;;;;;;40.10;16.67;;;12.70;99.90;;;;;;5040896;28;20025;-70
2023/02/22 10:38:05;;;;;;;41.10;16.90;;;12.70;99.90;;;;;;5042316;28;20026;-72
2023/02/22 10:40:31;;;;;;;43.40;19.15;;;12.70;99.90;;;;;;5042070;28;20025;-69
2023/02/22 10:43:05;;;;;;;44.15;18.02;;;12.60;99.90;;;;;;5039526;28;20038;-69
2023/02/22 10:45:33;;;;;;;33.95;15.05;;;12.80;99.90;;;;;;5042293;28;20025;-71
2023/02/22 10:48:12;;;;;;;41.67;18.00;;;13.00;99.90;;;;;;5037084;28;20042;-70
2023/02/22 10:50:41;;;;;;;48.85;19.27;;;13.00;99.90;;;;;;5040816;28;20501;-69
2023/02/22 10:53:08;;;;;;;45.03;17.63;;;12.90;99.90;;;;;;5056114;28;20036;-69
2023/02/22 10:55:34;;;;;;;39.13;17.25;;;12.80;99.90;;;;;;5041366;28;20373;-70
2023/02/22 10:58:07;;;;;;;47.88;19.27;;;12.70;99.90;;;;;;5041096;28;20021;-71
2023/02/22 11:00:38;;;;;;;37.10;16.70;;;12.90;99.90;;;;;;5040392;28;20103;-71
2023/02/22 11:03:22;;;;;;;43.80;18.58;;;12.90;99.90;;;;;;5041061;28;20064;-70
2023/02/22 11:05:48;;;;;;;42.72;19.45;;;13.00;99.90;;;;;;5041632;28;20049;-71
2023/02/22 11:08:22;;;;;;;45.72;16.92;;;12.90;99.90;;;;;;5041225;28;20453;-70
2023/02/22 11:11:09;;;;;;;42.35;18.67;;;13.10;99.90;;;;;;5039500;28;20036;-70
2023/02/22 11:13:39;;;;;;;43.35;19.85;;;13.10;99.90;;;;;;5036554;28;20108;-71
2023/02/22 11:16:19;;;;;;;41.80;17.75;;;13.20;99.90;;;;;;5041478;28;20036;-70
2023/02/22 11:18:46;;;;;;;41.45;18.58;;;13.20;99.90;;;;;;5040330;28;20045;-71
2023/02/22 11:21:19;;;;;;;43.53;18.92;;;13.30;99.90;;;;;;5039966;28;20065;-71
2023/02/22 11:23:45;;;;;;;35.67;15.93;;;13.50;99.90;;;;;;5038562;28;20425;-71
2023/02/22 11:26:14;;;;;;;40.20;18.60;;;13.60;99.90;;;;;;5039269;28;20053;-71
2023/02/22 11:28:48;;;;;;;40.25;18.80;;;13.60;99.90;;;;;;5039156;28;20033;-71
2023/02/22 11:31:27;;;;;;;36.80;17.23;;;13.80;99.90;;;;;;5040895;28;20026;-71
2023/02/22 11:33:56;;;;;;;40.63;17.10;;;13.90;99.90;;;;;;5036999;28;20045;-70
2023/02/22 11:36:41;;;;;;;38.55;17.45;;;14.10;99.90;;;;;;5037436;28;20033;-72
2023/02/22 11:39:27;;;;;;;40.20;18.88;;;14.00;99.90;;;;;;5035271;28;20033;-72
2023/02/22 11:41:55;;;;;;;38.22;17.05;;;13.90;99.90;;;;;;5040953;28;20037;-70
2023/02/22 11:44:30;;;;;;;37.55;17.23;;;13.80;99.90;;;;;;5040975;28;20029;-70
2023/02/22 11:47:00;;;;;;;39.92;18.50;;;13.60;99.90;;;;;;5040858;28;20032;-72
2023/02/22 11:49:35;;;;;;;41.17;18.45;;;13.50;99.90;;;;;;5039341;28;20083;-70
2023/02/22 11:52:23;;;;;;;40.70;17.38;;;13.40;99.90;;;;;;5039334;28;20061;-70
2023/02/22 11:55:20;;;;;;;49.35;20.10;;;13.40;99.90;;;;;;5037275;28;20033;-69
2023/02/22 11:58:23;;;;;;;40.08;18.85;;;13.40;99.90;;;;;;5036255;28;20022;-72
2023/02/22 12:01:01;;;;;;;43.78;17.65;;;13.60;99.90;;;;;;5037998;28;20060;-72
2023/02/22 12:03:29;;;;;;;45.22;19.13;;;13.80;99.90;;;;;;5038052;28;20500;-70
2023/02/22 12:06:26;;;;;;;46.72;20.17;;;13.90;99.90;;;;;;5040317;28;20018;-70
2023/02/22 12:08:55;;;;;;;39.45;18.95;;;14.00;99.90;;;;;;5035500;28;20054;-70
2023/02/22 12:11:37;;;;;;;39.75;18.02;;;14.10;99.90;;;;;;5037389;28;20041;-71
2023/02/22 12:14:10;;;;;;;41.22;17.95;;;14.30;99.90;;;;;;5039778;28;20034;-72
2023/02/22 12:16:54;;;;;;;42.95;18.63;;;14.60;99.90;;;;;;5037232;28;20029;-70
2023/02/22 12:19:26;;;;;;;;;;;14.80;99.90;;;;;;5036015;28;20033;-71
2023/02/22 12:22:01;;;;;;;39.83;18.20;;;14.90;99.90;;;;;;5041906;28;19940;-71
2023/02/22 12:24:32;;;;;;;39.85;18.25;;;14.80;99.90;;;;;;5041385;28;20056;-70
2023/02/22 12:27:10;;;;;;;43.90;18.35;;;14.70;99.90;;;;;;5044520;28;20247;-70
2023/02/22 12:29:46;;;;;;;40.35;18.75;;;14.50;99.90;;;;;;5043278;28;20647;-71
2023/02/22 12:32:31;;;;;;;40.13;17.55;;;14.50;99.90;;;;;;5041681;28;20040;-71
2023/02/22 12:35:19;;;;;;;37.67;17.70;;;14.40;99.90;;;;;;5037095;28;20034;-70
2023/02/22 12:37:57;;;;;;;38.65;18.08;;;14.30;99.90;;;;;;5036532;28;20097;-70
2023/02/22 12:40:46;;;;;;;44.58;19.48;;;14.20;99.90;;;;;;5033078;28;20608;-69
2023/02/22 12:43:25;;;;;;;39.90;18.48;;;14.20;99.90;;;;;;5040880;28;20064;-70
2023/02/22 12:46:15;;;;;;;40.33;18.77;;;14.10;99.90;;;;;;5042564;28;20441;-71
2023/02/22 12:49:01;;;;;;;46.67;18.55;;;14.00;99.90;;;;;;5044819;28;20025;-71